Time;durP1;ratioP1;P1;durP2;ratioP2;P2;SDS_P1;SDS_P2;PMS_P1;PMS_P2;Temp;Humidity;BMP_temperature;BMP_pressure;BME280_temperature;BME280_humidity;BME280_pressure;Samples;Min_cycle;Max_cycle;Signal;HPM_P1;HPM_P2
2022/10/18 00:00:13;;;;;;;9.73;6.70;;;14.80;41.70;;;;;;5017801;23;21182;-70
2022/10/18 00:02:40;;;;;;;17.30;7.47;;;14.80;41.80;;;;;;5004195;28;20484;-73
2022/10/18 00:05:08;;;;;;;8.80;6.27;;;14.80;41.90;;;;;;5001126;28;20467;-70
2022/10/18 00:07:34;;;;;;;13.13;7.10;;;14.80;41.90;;;;;;5001339;28;20471;-73
2022/10/18 00:10:01;;;;;;;11.40;7.43;;;14.80;41.80;;;;;;4997907;28;20483;-72
2022/10/18 00:12:31;;;;;;;10.33;6.90;;;14.90;42.30;;;;;;5004632;28;21025;-70
2022/10/18 00:14:58;;;;;;;14.20;8.37;;;14.80;42.10;;;;;;4998284;28;20460;-72
2022/10/18 00:17:25;;;;;;;14.97;8.60;;;14.90;42.20;;;;;;4996881;28;20846;-72
2022/10/18 00:19:52;;;;;;;14.33;8.73;;;14.90;42.00;;;;;;5004284;28;20485;-72
2022/10/18 00:22:18;;;;;;;11.70;7.20;;;14.80;42.00;;;;;;5005253;28;20503;-72
2022/10/18 00:24:45;;;;;;;11.37;7.97;;;14.80;41.90;;;;;;4998673;28;20460;-72
2022/10/18 00:27:12;;;;;;;13.33;7.90;;;14.80;41.70;;;;;;4999107;28;20460;-72
2022/10/18 00:29:40;;;;;;;10.90;6.80;;;14.80;41.70;;;;;;5003856;28;21005;-72
2022/10/18 00:32:07;;;;;;;7.93;5.97;;;14.70;41.70;;;;;;4993793;28;21003;-72
2022/10/18 00:34:34;;;;;;;7.87;5.80;;;14.70;41.50;;;;;;5004159;28;20459;-72
2022/10/18 00:37:00;;;;;;;8.40;5.90;;;14.70;41.20;;;;;;4994906;28;20465;-72
2022/10/18 00:39:27;;;;;;;8.07;6.00;;;14.60;41.00;;;;;;4994955;28;20484;-71
2022/10/18 00:41:54;;;;;;;9.63;6.33;;;14.60;40.90;;;;;;5006001;28;20482;-71
2022/10/18 00:44:58;;;;;;;11.20;7.47;;;14.60;40.90;;;;;;5004195;28;20463;-72
2022/10/18 00:47:26;;;;;;;11.37;6.90;;;14.70;42.00;;;;;;4995326;28;20459;-72
2022/10/18 00:49:56;;;;;;;10.50;6.27;;;14.70;41.60;;;;;;5002794;28;20488;-72
2022/10/18 00:52:27;;;;;;;9.47;6.37;;;14.70;41.60;;;;;;5004520;28;20459;-72
2022/10/18 00:54:56;;;;;;;11.07;7.13;;;14.60;41.80;;;;;;5004431;28;20466;-72
2022/10/18 00:57:24;;;;;;;13.13;7.07;;;14.60;41.60;;;;;;5001944;28;20464;-72
2022/10/18 00:59:51;;;;;;;13.00;6.53;;;14.60;41.50;;;;;;5003703;28;20859;-72
2022/10/18 01:02:18;;;;;;;14.33;6.70;;;14.60;41.60;;;;;;5003163;28;20485;-72
2022/10/18 01:04:46;;;;;;;12.20;6.90;;;14.60;41.60;;;;;;5002133;28;20464;-72
2022/10/18 01:07:23;;;;;;;12.10;7.13;;;14.60;41.70;;;;;;4999818;28;20463;-72
2022/10/18 01:10:00;;;;;;;12.20;7.07;;;14.60;42.00;;;;;;4995882;28;20480;-72
2022/10/18 01:12:37;;;;;;;12.47;6.53;;;14.60;41.80;;;;;;5001537;28;21145;-72
2022/10/18 01:15:10;;;;;;;11.63;6.90;;;14.60;41.80;;;;;;4999617;28;20833;-72
2022/10/18 01:17:45;;;;;;;8.93;6.40;;;14.60;41.70;;;;;;4997294;28;21090;-72
2022/10/18 01:20:52;;;;;;;10.17;6.70;;;14.60;41.70;;;;;;5005775;28;20475;-72
2022/10/18 01:23:28;;;;;;;9.00;7.00;;;14.60;41.90;;;;;;4995508;28;20567;-73
2022/10/18 01:26:04;;;;;;;12.30;7.10;;;14.50;41.60;;;;;;4998388;28;20822;-72
2022/10/18 01:28:47;;;;;;;10.30;6.53;;;14.50;41.70;;;;;;5000032;28;20475;-72
2022/10/18 01:31:21;;;;;;;11.10;6.90;;;14.50;41.80;;;;;;4996309;28;20471;-72
2022/10/18 01:33:51;;;;;;;10.43;6.90;;;14.50;41.50;;;;;;5000511;28;20460;-72
2022/10/18 01:36:23;;;;;;;10.23;6.90;;;14.50;41.50;;;;;;4999254;28;20831;-72
2022/10/18 01:38:53;;;;;;;11.47;6.40;;;14.50;41.50;;;;;;5001706;28;20484;-72
2022/10/18 01:41:23;;;;;;;9.70;6.27;;;14.50;41.60;;;;;;4994060;28;20495;-72
2022/10/18 01:43:54;;;;;;;11.47;7.03;;;14.40;41.30;;;;;;5006226;28;20513;-72
2022/10/18 01:46:24;;;;;;;10.53;7.00;;;14.40;41.40;;;;;;5005047;28;21012;-72
2022/10/18 01:48:52;;;;;;;11.80;6.50;;;14.40;41.50;;;;;;4997810;28;20510;-72
2022/10/18 01:51:22;;;;;;;10.07;6.70;;;14.30;41.40;;;;;;5008611;28;20487;-73
2022/10/18 01:53:49;;;;;;;11.63;6.67;;;14.30;41.20;;;;;;5007401;28;20463;-72
2022/10/18 01:56:25;;;;;;;11.70;7.03;;;14.20;41.10;;;;;;5002371;28;20460;-72
2022/10/18 01:59:06;;;;;;;8.77;5.90;;;14.20;41.20;;;;;;4996608;28;20498;-72
2022/10/18 02:01:43;;;;;;;13.90;7.50;;;14.20;41.30;;;;;;5005551;28;21039;-72
2022/10/18 02:04:20;;;;;;;11.70;6.30;;;14.10;41.40;;;;;;4999138;28;20456;-73
2022/10/18 02:06:53;;;;;;;9.20;7.00;;;14.10;41.30;;;;;;5005446;28;20829;-72
2022/10/18 02:09:26;;;;;;;13.60;7.40;;;14.10;41.30;;;;;;5003338;28;20956;-72
2022/10/18 02:11:55;;;;;;;9.63;6.67;;;14.10;41.40;;;;;;5007821;28;20455;-72
2022/10/18 02:14:24;;;;;;;11.97;7.33;;;14.10;41.40;;;;;;5000463;28;20457;-72
2022/10/18 02:16:56;;;;;;;13.13;6.70;;;14.10;41.50;;;;;;5003378;28;20949;-72
2022/10/18 02:19:29;;;;;;;17.70;7.13;;;14.10;41.70;;;;;;5001654;28;20494;-72
2022/10/18 02:21:58;;;;;;;14.13;7.07;;;14.20;41.60;;;;;;5003874;28;21011;-72
2022/10/18 02:24:29;;;;;;;11.97;7.60;;;14.20;41.70;;;;;;5002220;28;20469;-72
2022/10/18 02:26:56;;;;;;;9.23;6.93;;;14.20;41.90;;;;;;5005995;28;20459;-72
2022/10/18 02:29:23;;;;;;;9.10;6.20;;;14.20;41.80;;;;;;5003882;28;20479;-72
2022/10/18 02:31:56;;;;;;;14.07;6.47;;;14.20;42.00;;;;;;5007273;28;20554;-72
2022/10/18 02:34:29;;;;;;;11.33;7.03;;;14.20;42.00;;;;;;5002750;28;20490;-72
2022/10/18 02:36:58;;;;;;;10.00;6.23;;;14.20;41.80;;;;;;5000277;28;20464;-72
2022/10/18 02:39:30;;;;;;;10.30;6.43;;;14.30;42.00;;;;;;4995951;28;20488;-71
2022/10/18 02:41:57;;;;;;;9.03;6.20;;;14.30;41.90;;;;;;4995173;28;20476;-72
2022/10/18 02:44:24;;;;;;;12.40;6.67;;;14.40;41.70;;;;;;5001676;28;20461;-72
2022/10/18 02:46:51;;;;;;;9.80;6.50;;;14.40;41.80;;;;;;5003622;28;20460;-72
2022/10/18 02:49:19;;;;;;;13.33;6.97;;;14.40;41.40;;;;;;5006688;28;20463;-72
2022/10/18 02:51:46;;;;;;;10.23;6.47;;;14.40;41.50;;;;;;5009274;28;20465;-72
2022/10/18 02:54:13;;;;;;;9.93;5.90;;;14.50;41.60;;;;;;5006431;28;20460;-72
2022/10/18 02:56:39;;;;;;;11.30;7.07;;;14.40;41.60;;;;;;5000388;28;20472;-72
2022/10/18 02:59:07;;;;;;;10.37;6.20;;;14.50;41.50;;;;;;4998890;28;20463;-72
2022/10/18 03:01:34;;;;;;;10.37;7.50;;;14.50;41.40;;;;;;4999607;28;20483;-72
2022/10/18 03:04:01;;;;;;;13.03;5.90;;;14.50;41.40;;;;;;5006542;28;20581;-72
2022/10/18 03:06:29;;;;;;;9.30;6.20;;;14.50;41.20;;;;;;4997145;28;20595;-72
2022/10/18 03:08:56;;;;;;;10.90;7.27;;;14.50;41.40;;;;;;5006030;28;20464;-72
2022/10/18 03:11:23;;;;;;;10.50;7.70;;;14.50;41.10;;;;;;4998351;28;20480;-73
2022/10/18 03:13:50;;;;;;;13.53;6.63;;;14.50;41.00;;;;;;4999371;28;20460;-72
2022/10/18 03:16:17;;;;;;;11.20;6.60;;;14.60;40.80;;;;;;5006546;28;20466;-73
2022/10/18 03:18:44;;;;;;;11.20;7.67;;;14.60;40.40;;;;;;5001551;28;20470;-71
2022/10/18 03:21:11;;;;;;;9.90;7.20;;;14.60;40.60;;;;;;4997813;28;20476;-71
2022/10/18 03:23:40;;;;;;;21.93;8.07;;;14.60;40.80;;;;;;4992256;28;20480;-70
2022/10/18 03:26:07;;;;;;;13.27;6.70;;;14.70;41.30;;;;;;4996534;28;20482;-71
2022/10/18 03:28:34;;;;;;;11.33;7.43;;;14.70;41.40;;;;;;4999246;28;20468;-71
2022/10/18 03:31:01;;;;;;;15.53;8.17;;;14.70;41.50;;;;;;4987517;28;20488;-71
2022/10/18 03:33:28;;;;;;;14.10;7.80;;;14.60;41.50;;;;;;4994634;28;20510;-71
2022/10/18 03:35:55;;;;;;;18.20;7.93;;;14.60;41.60;;;;;;5000200;28;20467;-71
2022/10/18 03:38:22;;;;;;;11.73;7.50;;;14.60;41.80;;;;;;4997034;28;20479;-71
2022/10/18 03:40:50;;;;;;;13.20;7.90;;;14.60;41.80;;;;;;4996832;28;20488;-71
2022/10/18 03:43:16;;;;;;;15.43;9.57;;;14.60;41.70;;;;;;4995174;28;20598;-70
2022/10/18 03:45:43;;;;;;;12.77;8.30;;;14.70;41.90;;;;;;4993795;28;20471;-70
2022/10/18 03:48:10;;;;;;;14.70;9.30;;;14.70;42.00;;;;;;5000483;28;20463;-71
2022/10/18 03:50:37;;;;;;;12.77;7.83;;;14.70;42.20;;;;;;5000544;28;20480;-71
2022/10/18 03:53:03;;;;;;;16.17;9.17;;;14.70;41.90;;;;;;4998899;28;20455;-71
2022/10/18 03:55:30;;;;;;;13.53;9.17;;;14.70;42.00;;;;;;4996151;28;20472;-71
2022/10/18 03:57:58;;;;;;;14.40;8.50;;;14.70;42.00;;;;;;5005155;28;20456;-70
2022/10/18 04:00:25;;;;;;;10.93;7.33;;;14.70;41.80;;;;;;5003451;28;20491;-71
2022/10/18 04:02:52;;;;;;;14.03;7.33;;;14.80;41.10;;;;;;4995151;28;20486;-71
2022/10/18 04:05:19;;;;;;;9.30;7.40;;;14.80;41.20;;;;;;4997585;28;20957;-71
2022/10/18 04:07:45;;;;;;;9.97;6.33;;;14.80;41.10;;;;;;4995413;28;20980;-70
2022/10/18 04:10:12;;;;;;;11.67;8.03;;;14.70;41.00;;;;;;5004166;28;21060;-71
2022/10/18 04:12:39;;;;;;;10.13;7.37;;;14.70;41.00;;;;;;5003934;28;20460;-71
2022/10/18 04:15:08;;;;;;;11.50;7.33;;;14.70;40.80;;;;;;5000225;28;20464;-71
2022/10/18 04:17:35;;;;;;;26.03;9.47;;;14.80;40.60;;;;;;5000050;28;20464;-69
2022/10/18 04:20:02;;;;;;;10.70;7.40;;;14.80;40.50;;;;;;4998476;28;20484;-71
2022/10/18 04:22:28;;;;;;;11.00;7.70;;;14.80;40.70;;;;;;5004845;28;20518;-71
2022/10/18 04:24:55;;;;;;;12.80;7.80;;;14.80;40.70;;;;;;4994295;28;20457;-71
2022/10/18 04:27:23;;;;;;;12.07;8.37;;;14.80;40.80;;;;;;5003116;28;20459;-71
2022/10/18 04:29:49;;;;;;;11.37;7.87;;;14.80;40.80;;;;;;5004595;28;20476;-71
2022/10/18 04:32:17;;;;;;;10.27;7.70;;;14.80;40.90;;;;;;5003316;28;21301;-70
2022/10/18 04:34:44;;;;;;;13.47;9.50;;;14.80;40.90;;;;;;5003365;28;20960;-71
2022/10/18 04:37:11;;;;;;;9.53;7.53;;;14.80;40.80;;;;;;5002449;28;20464;-71
2022/10/18 04:39:37;;;;;;;12.20;8.40;;;14.80;41.00;;;;;;5003989;28;20480;-71
2022/10/18 04:42:04;;;;;;;9.80;6.90;;;14.80;41.00;;;;;;5001718;28;20456;-71
2022/10/18 04:44:31;;;;;;;11.50;7.47;;;14.80;40.90;;;;;;5000157;28;21101;-71
2022/10/18 04:46:58;;;;;;;11.03;7.50;;;14.80;40.90;;;;;;4997588;28;20464;-71
2022/10/18 04:49:26;;;;;;;13.97;8.07;;;14.70;40.90;;;;;;4997692;28;21023;-70
2022/10/18 04:51:53;;;;;;;10.10;7.43;;;14.70;40.80;;;;;;4992047;28;20487;-71
2022/10/18 04:54:19;;;;;;;12.40;6.50;;;14.70;40.80;;;;;;4999460;28;20457;-70
2022/10/18 04:56:46;;;;;;;10.23;7.13;;;14.70;40.80;;;;;;4996005;28;20467;-71
2022/10/18 04:59:13;;;;;;;14.57;7.87;;;14.70;41.00;;;;;;5004050;28;20478;-71
2022/10/18 05:01:40;;;;;;;10.67;7.90;;;14.80;40.50;;;;;;4995401;28;20469;-71
2022/10/18 05:04:06;;;;;;;10.57;7.20;;;14.80;40.60;;;;;;4999081;28;20484;-70
2022/10/18 05:06:34;;;;;;;10.80;6.53;;;14.80;40.20;;;;;;5001431;28;20997;-71
2022/10/18 05:09:01;;;;;;;10.50;7.37;;;14.80;40.10;;;;;;5006480;28;21026;-71
2022/10/18 05:11:28;;;;;;;11.47;6.90;;;14.80;40.20;;;;;;4991900;28;20470;-70
2022/10/18 05:13:54;;;;;;;11.87;6.87;;;14.80;40.20;;;;;;4996321;28;20460;-70
2022/10/18 05:16:21;;;;;;;9.13;6.67;;;14.80;40.30;;;;;;5002220;28;20467;-70
2022/10/18 05:18:48;;;;;;;12.50;6.73;;;14.90;40.20;;;;;;4991149;28;20467;-70
2022/10/18 05:21:16;;;;;;;9.97;6.57;;;14.80;40.00;;;;;;5004106;28;20476;-71
2022/10/18 05:23:44;;;;;;;16.13;7.00;;;14.80;40.20;;;;;;4994069;28;20478;-70
2022/10/18 05:26:11;;;;;;;10.63;7.67;;;14.80;40.20;;;;;;4998404;28;20456;-70
2022/10/18 05:28:37;;;;;;;13.60;6.80;;;14.80;40.00;;;;;;4997113;28;20466;-71
2022/10/18 05:31:06;;;;;;;10.47;6.97;;;14.80;39.80;;;;;;5000411;28;20485;-71
2022/10/18 05:33:33;;;;;;;11.67;7.80;;;14.80;39.80;;;;;;5003385;28;20452;-70
2022/10/18 05:35:59;;;;;;;11.30;7.10;;;14.80;40.00;;;;;;4998423;28;20456;-71
2022/10/18 05:38:29;;;;;;;14.63;8.33;;;14.80;40.00;;;;;;5003726;28;20490;-71
2022/10/18 05:40:57;;;;;;;13.00;7.50;;;14.80;40.00;;;;;;5001483;28;20481;-71
2022/10/18 05:43:28;;;;;;;15.07;9.60;;;14.80;40.10;;;;;;5007081;28;20479;-71
2022/10/18 05:45:55;;;;;;;11.67;8.43;;;14.90;40.30;;;;;;5005582;28;20460;-71
2022/10/18 05:48:22;;;;;;;12.70;8.90;;;14.90;40.50;;;;;;5007472;28;20467;-71
2022/10/18 05:50:48;;;;;;;10.97;7.40;;;14.90;40.50;;;;;;5006201;28;20490;-71
2022/10/18 05:53:15;;;;;;;12.80;8.00;;;14.90;40.50;;;;;;4997786;28;20463;-71
2022/10/18 05:55:42;;;;;;;13.83;7.90;;;15.00;40.50;;;;;;4995836;28;20980;-71
2022/10/18 05:58:10;;;;;;;14.63;7.53;;;14.90;40.10;;;;;;5006180;28;20483;-70
2022/10/18 06:00:37;;;;;;;13.17;8.40;;;15.00;39.80;;;;;;4998984;28;20472;-71
2022/10/18 06:03:04;;;;;;;16.33;10.23;;;15.00;39.90;;;;;;5002448;28;21015;-70
2022/10/18 06:05:30;;;;;;;15.60;10.30;;;15.00;40.10;;;;;;5002853;28;20464;-71
2022/10/18 06:07:57;;;;;;;10.63;8.37;;;15.00;39.90;;;;;;5005370;28;20474;-71
2022/10/18 06:10:24;;;;;;;12.20;9.40;;;15.00;40.10;;;;;;5005082;28;20492;-71
2022/10/18 06:12:51;;;;;;;13.87;9.37;;;15.10;40.10;;;;;;5004174;28;20464;-70
2022/10/18 06:15:19;;;;;;;12.90;9.10;;;15.10;40.20;;;;;;5009446;28;20568;-70
2022/10/18 06:17:46;;;;;;;14.90;8.83;;;15.10;40.30;;;;;;5009069;28;20468;-71
2022/10/18 06:20:13;;;;;;;14.43;9.43;;;15.10;40.30;;;;;;5008427;28;20475;-71
2022/10/18 06:22:40;;;;;;;15.73;8.40;;;15.20;40.40;;;;;;5004553;28;20476;-70
2022/10/18 06:25:07;;;;;;;12.43;8.33;;;15.20;40.30;;;;;;5011757;23;20499;-68
2022/10/18 06:27:34;;;;;;;13.23;8.70;;;15.30;40.30;;;;;;4996985;28;20835;-68
2022/10/18 06:30:01;;;;;;;11.90;8.53;;;15.30;40.00;;;;;;4995706;28;20460;-69
2022/10/18 06:32:29;;;;;;;18.87;11.17;;;15.40;39.90;;;;;;5002612;28;21205;-69
2022/10/18 06:34:55;;;;;;;15.07;10.30;;;15.40;39.60;;;;;;5000641;28;21384;-68
2022/10/18 06:37:22;;;;;;;13.70;9.83;;;15.50;39.60;;;;;;5002037;28;20836;-69
2022/10/18 06:39:49;;;;;;;12.20;7.97;;;15.60;39.40;;;;;;4998213;28;20468;-68
2022/10/18 06:42:16;;;;;;;14.10;8.03;;;15.70;39.00;;;;;;5003752;28;20471;-68
2022/10/18 06:44:42;;;;;;;11.20;8.00;;;15.70;39.00;;;;;;5006594;28;20484;-67
2022/10/18 06:47:10;;;;;;;14.90;9.70;;;15.70;39.00;;;;;;5000900;28;20716;-68
2022/10/18 06:49:38;;;;;;;13.63;8.83;;;15.70;39.10;;;;;;5004902;28;20506;-68
2022/10/18 06:52:06;;;;;;;19.77;9.20;;;15.80;38.90;;;;;;5002974;28;20460;-68
2022/10/18 06:54:33;;;;;;;14.50;8.70;;;15.80;39.00;;;;;;5006735;28;20477;-68
2022/10/18 06:57:01;;;;;;;11.63;8.83;;;15.90;38.90;;;;;;5004067;28;20499;-69
2022/10/18 06:59:28;;;;;;;11.80;8.60;;;16.00;38.50;;;;;;5003358;28;20558;-69
2022/10/18 07:01:55;;;;;;;13.53;9.17;;;16.20;38.00;;;;;;5007404;28;20488;-68
2022/10/18 07:04:21;;;;;;;10.50;7.80;;;16.30;38.00;;;;;;5002367;28;20983;-68
2022/10/18 07:06:50;;;;;;;13.57;9.00;;;16.30;37.60;;;;;;5004362;28;20463;-69
2022/10/18 07:09:16;;;;;;;17.50;9.70;;;16.40;37.50;;;;;;5006054;28;20464;-68
2022/10/18 07:11:43;;;;;;;11.23;8.70;;;16.40;37.20;;;;;;5006177;28;20465;-68
2022/10/18 07:14:10;;;;;;;16.07;9.10;;;16.50;37.10;;;;;;4998110;28;20488;-68
2022/10/18 07:16:37;;;;;;;14.57;9.70;;;16.50;37.10;;;;;;5006894;28;20467;-68
2022/10/18 07:19:04;;;;;;;11.43;8.07;;;16.60;36.90;;;;;;5001630;28;20468;-68
2022/10/18 07:21:31;;;;;;;14.90;8.23;;;16.70;37.10;;;;;;5005667;28;20866;-68
2022/10/18 07:23:59;;;;;;;10.60;7.57;;;17.10;37.50;;;;;;4998048;28;20802;-68
2022/10/18 07:26:27;;;;;;;11.20;7.37;;;17.90;36.10;;;;;;4999041;28;20468;-68
2022/10/18 07:28:56;;;;;;;12.17;7.80;;;18.60;33.70;;;;;;5001954;28;20982;-67
2022/10/18 07:31:24;;;;;;;11.40;7.77;;;19.10;32.10;;;;;;5005813;28;20468;-70
2022/10/18 07:33:51;;;;;;;10.90;7.57;;;19.50;30.90;;;;;;5004280;28;20498;-68
2022/10/18 07:36:20;;;;;;;11.40;7.93;;;20.00;29.60;;;;;;5002411;28;20467;-69
2022/10/18 07:38:46;;;;;;;12.33;7.53;;;20.50;28.10;;;;;;4996634;28;20477;-69
2022/10/18 07:41:15;;;;;;;23.33;8.80;;;21.00;25.80;;;;;;4998335;28;20456;-68
2022/10/18 07:44:06;;;;;;;14.03;8.27;;;21.70;24.20;;;;;;5002125;28;20496;-71
2022/10/18 07:46:33;;;;;;;16.80;8.40;;;22.80;20.40;;;;;;5003615;28;20466;-70
2022/10/18 07:49:00;;;;;;;14.43;8.63;;;23.90;17.90;;;;;;5003684;28;20992;-69
2022/10/18 07:51:27;;;;;;;16.67;8.80;;;25.00;15.40;;;;;;5005641;28;20947;-68
2022/10/18 07:53:54;;;;;;;10.83;7.10;;;25.90;13.10;;;;;;5003346;28;20480;-69
2022/10/18 07:56:22;;;;;;;13.03;8.97;;;26.80;11.60;;;;;;5004209;28;20554;-70
2022/10/18 07:58:51;;;;;;;13.07;7.33;;;27.80;9.90;;;;;;5004825;28;20845;-69
2022/10/18 08:01:19;;;;;;;9.13;7.70;;;28.70;8.20;;;;;;5005872;28;20463;-70
2022/10/18 08:03:46;;;;;;;13.20;7.60;;;29.50;7.00;;;;;;5005923;28;20519;-69
2022/10/18 08:06:16;;;;;;;14.33;7.57;;;30.20;5.20;;;;;;5005293;28;20464;-69
2022/10/18 08:08:44;;;;;;;10.30;7.80;;;30.50;4.90;;;;;;5001020;28;20456;-69
2022/10/18 08:11:16;;;;;;;10.60;7.90;;;31.20;4.40;;;;;;5005269;28;20521;-69
2022/10/18 08:13:44;;;;;;;12.53;7.70;;;32.00;2.90;;;;;;5001906;28;20482;-70
2022/10/18 08:16:13;;;;;;;11.23;7.90;;;32.80;1.40;;;;;;5003848;28;20531;-70
2022/10/18 08:18:40;;;;;;;14.20;7.10;;;33.50;1.00;;;;;;4997857;28;20463;-70
2022/10/18 08:21:09;;;;;;;14.70;7.70;;;34.20;1.00;;;;;;5006552;28;20960;-70
2022/10/18 08:23:37;;;;;;;11.13;7.97;;;34.80;1.00;;;;;;5002165;28;21002;-70
2022/10/18 08:26:12;;;;;;;10.57;6.63;;;35.50;1.00;;;;;;4998741;28;20467;-70
2022/10/18 08:28:39;;;;;;;9.47;6.60;;;36.10;1.00;;;;;;5004836;28;20463;-69
2022/10/18 08:31:10;;;;;;;8.87;6.97;;;36.50;1.00;;;;;;4995015;28;20476;-70
2022/10/18 08:33:38;;;;;;;11.20;7.03;;;37.00;1.00;;;;;;5003945;28;20484;-70
2022/10/18 08:36:07;;;;;;;10.17;6.27;;;37.60;1.00;;;;;;4996116;28;20464;-71
2022/10/18 08:38:35;;;;;;;7.63;5.80;;;38.10;1.00;;;;;;5004194;28;20471;-70
2022/10/18 08:41:16;;;;;;;9.93;5.60;;;38.50;1.00;;;;;;4998605;28;20463;-70
2022/10/18 08:43:50;;;;;;;12.60;5.97;;;38.80;1.00;;;;;;5005128;28;20479;-69
2022/10/18 08:46:18;;;;;;;15.67;6.27;;;39.40;1.00;;;;;;4998021;28;20463;-69
2022/10/18 08:48:48;;;;;;;11.00;5.73;;;39.90;1.00;;;;;;5001237;28;20455;-69
2022/10/18 08:51:29;;;;;;;8.00;5.40;;;40.40;1.00;;;;;;5000860;28;20456;-70
2022/10/18 08:54:04;;;;;;;8.33;5.00;;;40.90;1.00;;;;;;5001663;28;20954;-70
2022/10/18 08:56:32;;;;;;;9.03;5.70;;;41.30;1.00;;;;;;5005495;28;20463;-70
2022/10/18 08:58:58;;;;;;;8.83;4.50;;;41.60;1.00;;;;;;5002046;28;20456;-70
2022/10/18 09:01:35;;;;;;;12.83;5.50;;;41.80;1.00;;;;;;5003123;28;20471;-70
2022/10/18 09:04:25;;;;;;;10.47;5.50;;;42.10;1.00;;;;;;5007273;28;20489;-70
2022/10/18 09:07:11;;;;;;;7.73;5.00;;;42.40;1.00;;;;;;5008228;28;20976;-70
2022/10/18 09:09:44;;;;;;;13.07;5.10;;;42.70;1.00;;;;;;5004095;28;20456;-69
2022/10/18 09:12:37;;;;;;;10.20;4.97;;;42.60;1.00;;;;;;5008995;28;20542;-70
2022/10/18 09:15:16;;;;;;;9.47;4.73;;;42.80;1.00;;;;;;5000992;28;20475;-70
2022/10/18 09:17:58;;;;;;;7.57;4.53;;;43.00;1.00;;;;;;5004207;28;20460;-69
2022/10/18 09:20:27;;;;;;;7.90;4.73;;;43.10;1.00;;;;;;5005207;28;20471;-70
2022/10/18 09:22:56;;;;;;;5.80;4.30;;;43.00;1.00;;;;;;5010066;28;20467;-69
2022/10/18 09:25:25;;;;;;;9.53;5.00;;;42.60;1.00;;;;;;5010696;28;20975;-71
2022/10/18 09:27:55;;;;;;;11.77;4.63;;;42.40;1.00;;;;;;5008430;28;20452;-70
2022/10/18 09:30:31;;;;;;;8.67;5.27;;;41.90;1.00;;;;;;5006521;28;20470;-70
2022/10/18 09:33:13;;;;;;;7.80;4.63;;;41.50;1.00;;;;;;5008858;28;20467;-70
2022/10/18 09:35:45;;;;;;;9.20;5.30;;;41.00;1.00;;;;;;5005258;28;20459;-70
2022/10/18 09:38:14;;;;;;;12.03;4.60;;;40.50;1.00;;;;;;5003357;28;20468;-70
2022/10/18 09:40:51;;;;;;;8.13;4.33;;;40.10;1.00;;;;;;5002671;28;20460;-69
2022/10/18 09:43:22;;;;;;;9.83;4.90;;;39.60;1.00;;;;;;5006931;28;20447;-70
2022/10/18 09:45:52;;;;;;;10.20;5.47;;;39.30;1.00;;;;;;5008511;28;20484;-71
2022/10/18 09:48:23;;;;;;;10.40;5.00;;;38.80;1.00;;;;;;5002838;28;20468;-69
2022/10/18 09:50:56;;;;;;;11.10;5.07;;;38.20;1.00;;;;;;5006316;28;20464;-70
2022/10/18 09:53:34;;;;;;;7.20;4.87;;;37.70;1.00;;;;;;5002842;28;20464;-70
2022/10/18 09:56:04;;;;;;;7.00;4.70;;;37.10;1.00;;;;;;5000654;28;20991;-69
2022/10/18 09:58:41;;;;;;;7.17;5.10;;;36.60;1.00;;;;;;5003244;28;20471;-71
2022/10/18 10:01:10;;;;;;;7.30;4.83;;;36.00;1.00;;;;;;4997105;28;20494;-69
2022/10/18 10:03:38;;;;;;;7.70;4.23;;;35.40;1.00;;;;;;5010689;28;20472;-69
2022/10/18 10:06:24;;;;;;;15.90;5.43;;;34.90;1.00;;;;;;5005957;28;20480;-70
2022/10/18 10:08:57;;;;;;;22.43;4.70;;;34.20;1.00;;;;;;5001109;28;20458;-70
2022/10/18 10:11:29;;;;;;;7.53;4.67;;;33.70;1.00;;;;;;5000354;28;20840;-70
2022/10/18 10:13:58;;;;;;;7.30;4.33;;;33.30;1.00;;;;;;5005131;28;20480;-70
2022/10/18 10:16:27;;;;;;;9.30;3.93;;;32.80;1.00;;;;;;5005739;28;20457;-70
2022/10/18 10:18:55;;;;;;;11.70;4.40;;;32.50;1.00;;;;;;5003800;28;20467;-71
2022/10/18 10:21:22;;;;;;;8.17;3.80;;;32.20;1.00;;;;;;5006084;28;20452;-69
2022/10/18 10:23:54;;;;;;;8.03;4.70;;;32.10;1.00;;;;;;5005834;28;20491;-69
2022/10/18 10:26:23;;;;;;;6.30;4.27;;;32.00;1.00;;;;;;5001472;28;20476;-70
2022/10/18 10:28:51;;;;;;;9.20;3.90;;;32.20;1.00;;;;;;5005065;28;20464;-71
2022/10/18 10:31:26;;;;;;;12.60;4.57;;;32.20;1.00;;;;;;5005964;28;20508;-70
2022/10/18 10:34:00;;;;;;;9.23;4.40;;;32.40;1.00;;;;;;5002933;28;20479;-71
2022/10/18 10:36:28;;;;;;;8.17;4.60;;;32.50;1.00;;;;;;5004733;28;20455;-70
2022/10/18 10:39:04;;;;;;;6.83;3.70;;;32.60;1.00;;;;;;5002388;28;20464;-71
2022/10/18 10:41:31;;;;;;;7.00;3.80;;;32.90;1.00;;;;;;5000439;28;20460;-69
2022/10/18 10:44:00;;;;;;;7.30;3.63;;;33.10;1.00;;;;;;4999263;28;21054;-69
2022/10/18 10:46:34;;;;;;;6.00;3.13;;;33.50;1.00;;;;;;5005716;28;20484;-71
2022/10/18 10:49:03;;;;;;;8.27;3.80;;;33.80;1.00;;;;;;5007669;28;20459;-69
2022/10/18 10:51:32;;;;;;;8.27;3.83;;;34.00;1.00;;;;;;5005496;28;21594;-70
2022/10/18 10:54:02;;;;;;;6.47;3.70;;;34.30;1.00;;;;;;5005829;28;20479;-70
2022/10/18 10:56:32;;;;;;;4.60;3.10;;;34.50;1.00;;;;;;5002294;28;20551;-70
2022/10/18 10:59:07;;;;;;;8.07;3.23;;;34.60;1.00;;;;;;5003643;28;20475;-69
2022/10/18 11:01:34;;;;;;;6.57;3.37;;;34.40;1.00;;;;;;4997687;28;20492;-70
2022/10/18 11:04:22;;;;;;;5.90;3.20;;;34.70;1.00;;;;;;4997531;28;20491;-70
2022/10/18 11:06:57;;;;;;;6.93;3.00;;;35.00;1.00;;;;;;5002102;28;20456;-70
2022/10/18 11:09:45;;;;;;;5.70;2.77;;;35.40;1.00;;;;;;5002900;28;20455;-70
2022/10/18 11:12:27;;;;;;;5.00;2.60;;;34.80;1.00;;;;;;5001245;28;20479;-71
2022/10/18 11:15:08;;;;;;;5.10;3.13;;;34.00;1.00;;;;;;5003408;28;20480;-69
2022/10/18 11:17:42;;;;;;;5.57;3.00;;;33.60;1.00;;;;;;5003877;28;20463;-71
2022/10/18 11:20:21;;;;;;;6.77;3.00;;;32.90;1.00;;;;;;5005798;28;20471;-71
2022/10/18 11:23:01;;;;;;;6.20;3.03;;;32.30;1.00;;;;;;5002465;28;20464;-70
2022/10/18 11:25:41;;;;;;;7.93;3.30;;;31.70;1.00;;;;;;5000325;28;20491;-70
2022/10/18 11:28:15;;;;;;;8.60;3.50;;;31.10;1.00;;;;;;5006423;28;20471;-71
2022/10/18 11:30:55;;;;;;;6.63;3.20;;;30.70;1.50;;;;;;4997052;28;20472;-69
2022/10/18 11:33:28;;;;;;;8.20;3.60;;;30.30;2.00;;;;;;5000375;28;20558;-69
2022/10/18 11:36:08;;;;;;;7.20;2.40;;;30.10;3.20;;;;;;5001684;28;20660;-70
2022/10/18 11:38:41;;;;;;;7.83;3.23;;;30.00;3.60;;;;;;5001383;28;20981;-71
2022/10/18 11:41:23;;;;;;;10.43;3.33;;;30.70;2.20;;;;;;5002273;28;20468;-70
2022/10/18 11:43:55;;;;;;;6.80;2.60;;;31.60;2.10;;;;;;5004399;28;20499;-70
2022/10/18 11:46:32;;;;;;;6.70;3.00;;;31.90;1.20;;;;;;5001710;28;20471;-70
2022/10/18 11:49:20;;;;;;;13.43;3.30;;;31.70;1.00;;;;;;4995359;28;20466;-70
2022/10/18 11:51:59;;;;;;;5.13;2.53;;;31.50;1.10;;;;;;4994455;28;20471;-69
2022/10/18 11:54:45;;;;;;;6.97;2.50;;;31.20;1.50;;;;;;5005444;28;21077;-70
2022/10/18 11:57:29;;;;;;;6.50;3.33;;;30.70;2.00;;;;;;4999659;28;20464;-70
2022/10/18 12:00:06;;;;;;;6.30;3.30;;;30.20;2.70;;;;;;5000092;28;20471;-71
2022/10/18 12:02:59;;;;;;;7.17;3.70;;;29.80;3.20;;;;;;5004190;28;20480;-69
2022/10/18 12:05:28;;;;;;;6.10;2.63;;;29.40;4.50;;;;;;4995861;28;20803;-70
2022/10/18 12:08:02;;;;;;;7.10;2.70;;;29.20;4.80;;;;;;4998451;28;20972;-70
2022/10/18 12:10:32;;;;;;;7.10;3.20;;;29.00;4.80;;;;;;5001599;28;20855;-69
2022/10/18 12:13:03;;;;;;;5.63;2.77;;;28.90;4.60;;;;;;4994126;28;20856;-70
2022/10/18 12:15:33;;;;;;;7.93;3.43;;;28.60;5.20;;;;;;5002407;28;20490;-70
2022/10/18 12:18:04;;;;;;;8.47;3.03;;;28.50;5.90;;;;;;4999202;28;20969;-69
2022/10/18 12:20:33;;;;;;;10.10;3.10;;;28.40;6.30;;;;;;4997623;28;20464;-69
2022/10/18 12:23:04;;;;;;;9.77;2.43;;;28.80;7.10;;;;;;5003739;28;20962;-69
2022/10/18 12:25:35;;;;;;;8.13;3.93;;;28.90;5.70;;;;;;5004698;28;20494;-69
2022/10/18 12:28:09;;;;;;;8.53;3.20;;;29.00;5.70;;;;;;5001126;28;20471;-69
2022/10/18 12:30:42;;;;;;;6.93;2.83;;;28.90;5.60;;;;;;4999189;28;20475;-70
2022/10/18 12:33:12;;;;;;;7.93;3.60;;;28.60;6.30;;;;;;4998881;28;20452;-69
2022/10/18 12:35:51;;;;;;;7.80;3.37;;;28.30;6.70;;;;;;5000109;28;21753;-69
2022/10/18 12:38:23;;;;;;;7.50;3.40;;;28.00;7.80;;;;;;5001807;28;20460;-69
2022/10/18 12:40:52;;;;;;;5.37;2.80;;;27.80;7.90;;;;;;4998752;28;20467;-69
2022/10/18 12:43:23;;;;;;;11.00;3.37;;;27.60;8.20;;;;;;4994260;28;20456;-69
2022/10/18 12:45:54;;;;;;;6.50;3.10;;;27.40;8.90;;;;;;4997967;28;20518;-69
2022/10/18 12:48:29;;;;;;;8.83;3.10;;;27.40;9.10;;;;;;5000804;28;20463;-70
2022/10/18 12:50:59;;;;;;;9.50;2.83;;;27.20;9.20;;;;;;4999702;28;20479;-71
2022/10/18 12:53:29;;;;;;;9.03;3.00;;;27.20;9.40;;;;;;5000969;28;20471;-71
2022/10/18 12:56:16;;;;;;;8.97;3.70;;;27.00;9.60;;;;;;5000813;28;20463;-72
2022/10/18 12:58:43;;;;;;;11.63;3.40;;;26.90;9.90;;;;;;5004953;28;20463;-70